sensor_id;sensor_type;location;lat;lon;timestamp;P1;durP1;ratioP1;P2;durP2;ratioP2
47609;SDS011;33330;50.402;30.240;2023-09-30T00:01:23;1.10;;;0.30;;
47609;SDS011;33330;50.402;30.240;2023-09-30T00:04:12;0.20;;;0.20;;
47609;SDS011;33330;50.402;30.240;2023-09-30T00:07:00;0.10;;;0.10;;
47609;SDS011;33330;50.402;30.240;2023-09-30T00:09:48;0.47;;;0.47;;
47609;SDS011;33330;50.402;30.240;2023-09-30T00:12:38;0.30;;;0.30;;
47609;SDS011;33330;50.402;30.240;2023-09-30T00:15:28;0.10;;;0.10;;
47609;SDS011;33330;50.402;30.240;2023-09-30T00:18:16;0.32;;;0.20;;
47609;SDS011;33330;50.402;30.240;2023-09-30T00:21:04;0.70;;;0.65;;
47609;SDS011;33330;50.402;30.240;2023-09-30T00:23:53;0.43;;;0.43;;
47609;SDS011;33330;50.402;30.240;2023-09-30T00:26:41;0.20;;;0.20;;
47609;SDS011;33330;50.402;30.240;2023-09-30T00:29:29;0.30;;;0.30;;
47609;SDS011;33330;50.402;30.240;2023-09-30T00:32:18;0.60;;;0.60;;
47609;SDS011;33330;50.402;30.240;2023-09-30T00:35:07;0.10;;;0.10;;
47609;SDS011;33330;50.402;30.240;2023-09-30T00:37:58;0.10;;;0.10;;
47609;SDS011;33330;50.402;30.240;2023-09-30T00:40:47;0.32;;;0.32;;
47609;SDS011;33330;50.402;30.240;2023-09-30T00:43:35;1.67;;;1.05;;
47609;SDS011;33330;50.402;30.240;2023-09-30T00:46:26;0.10;;;0.10;;
47609;SDS011;33330;50.402;30.240;2023-09-30T00:49:16;0.52;;;0.52;;
47609;SDS011;33330;50.402;30.240;2023-09-30T00:52:05;0.70;;;0.70;;
47609;SDS011;33330;50.402;30.240;2023-09-30T00:54:54;0.22;;;0.22;;
47609;SDS011;33330;50.402;30.240;2023-09-30T00:57:43;0.10;;;0.10;;
47609;SDS011;33330;50.402;30.240;2023-09-30T01:00:32;0.10;;;0.10;;
47609;SDS011;33330;50.402;30.240;2023-09-30T01:03:20;0.15;;;0.13;;
47609;SDS011;33330;50.402;30.240;2023-09-30T01:06:10;0.50;;;0.40;;
47609;SDS011;33330;50.402;30.240;2023-09-30T01:08:58;0.28;;;0.28;;
47609;SDS011;33330;50.402;30.240;2023-09-30T01:11:47;0.10;;;0.10;;
47609;SDS011;33330;50.402;30.240;2023-09-30T01:14:36;0.75;;;0.75;;
47609;SDS011;33330;50.402;30.240;2023-09-30T01:17:25;0.30;;;0.30;;
47609;SDS011;33330;50.402;30.240;2023-09-30T01:20:16;0.13;;;0.13;;
47609;SDS011;33330;50.402;30.240;2023-09-30T01:23:08;0.15;;;0.15;;
47609;SDS011;33330;50.402;30.240;2023-09-30T01:26:00;0.13;;;0.13;;
47609;SDS011;33330;50.402;30.240;2023-09-30T01:28:50;0.38;;;0.38;;
47609;SDS011;33330;50.402;30.240;2023-09-30T01:31:38;0.20;;;0.20;;
47609;SDS011;33330;50.402;30.240;2023-09-30T01:34:26;0.15;;;0.15;;
47609;SDS011;33330;50.402;30.240;2023-09-30T01:37:15;0.10;;;0.10;;
47609;SDS011;33330;50.402;30.240;2023-09-30T01:40:05;0.20;;;0.20;;
47609;SDS011;33330;50.402;30.240;2023-09-30T01:42:57;0.17;;;0.17;;
47609;SDS011;33330;50.402;30.240;2023-09-30T01:45:46;0.32;;;0.32;;
47609;SDS011;33330;50.402;30.240;2023-09-30T01:48:34;0.38;;;0.38;;
47609;SDS011;33330;50.402;30.240;2023-09-30T01:51:23;0.20;;;0.20;;
47609;SDS011;33330;50.402;30.240;2023-09-30T01:54:11;0.30;;;0.30;;
47609;SDS011;33330;50.402;30.240;2023-09-30T01:57:01;0.20;;;0.20;;
47609;SDS011;33330;50.402;30.240;2023-09-30T01:59:50;0.10;;;0.10;;
47609;SDS011;33330;50.402;30.240;2023-09-30T02:02:38;0.20;;;0.20;;
47609;SDS011;33330;50.402;30.240;2023-09-30T02:05:27;0.10;;;0.10;;
47609;SDS011;33330;50.402;30.240;2023-09-30T02:08:15;0.20;;;0.20;;
47609;SDS011;33330;50.402;30.240;2023-09-30T02:11:04;0.25;;;0.25;;
47609;SDS011;33330;50.402;30.240;2023-09-30T02:13:55;0.63;;;0.63;;
47609;SDS011;33330;50.402;30.240;2023-09-30T02:16:43;0.55;;;0.55;;
47609;SDS011;33330;50.402;30.240;2023-09-30T02:19:32;0.35;;;0.35;;
47609;SDS011;33330;50.402;30.240;2023-09-30T02:22:20;0.30;;;0.30;;
47609;SDS011;33330;50.402;30.240;2023-09-30T02:25:10;0.60;;;0.57;;
47609;SDS011;33330;50.402;30.240;2023-09-30T02:27:59;0.30;;;0.30;;
47609;SDS011;33330;50.402;30.240;2023-09-30T02:30:49;0.10;;;0.10;;
47609;SDS011;33330;50.402;30.240;2023-09-30T02:33:37;0.47;;;0.47;;
47609;SDS011;33330;50.402;30.240;2023-09-30T02:36:26;0.10;;;0.10;;
47609;SDS011;33330;50.402;30.240;2023-09-30T02:39:15;0.30;;;0.30;;
47609;SDS011;33330;50.402;30.240;2023-09-30T02:42:04;0.20;;;0.20;;
47609;SDS011;33330;50.402;30.240;2023-09-30T02:44:53;0.30;;;0.30;;
47609;SDS011;33330;50.402;30.240;2023-09-30T02:47:42;0.40;;;0.40;;
47609;SDS011;33330;50.402;30.240;2023-09-30T02:50:30;0.50;;;0.50;;
47609;SDS011;33330;50.402;30.240;2023-09-30T02:53:19;0.25;;;0.25;;
47609;SDS011;33330;50.402;30.240;2023-09-30T02:56:07;0.47;;;0.47;;
47609;SDS011;33330;50.402;30.240;2023-09-30T02:58:58;0.73;;;0.40;;
47609;SDS011;33330;50.402;30.240;2023-09-30T03:01:46;0.40;;;0.40;;
47609;SDS011;33330;50.402;30.240;2023-09-30T03:04:36;0.10;;;0.10;;
47609;SDS011;33330;50.402;30.240;2023-09-30T03:07:24;0.10;;;0.10;;
47609;SDS011;33330;50.402;30.240;2023-09-30T03:10:12;0.40;;;0.40;;
47609;SDS011;33330;50.402;30.240;2023-09-30T03:13:06;0.20;;;0.20;;
47609;SDS011;33330;50.402;30.240;2023-09-30T03:15:55;0.38;;;0.30;;
47609;SDS011;33330;50.402;30.240;2023-09-30T03:18:44;0.28;;;0.28;;
47609;SDS011;33330;50.402;30.240;2023-09-30T03:21:34;0.10;;;0.10;;
47609;SDS011;33330;50.402;30.240;2023-09-30T03:24:23;0.25;;;0.25;;
47609;SDS011;33330;50.402;30.240;2023-09-30T03:27:11;0.47;;;0.47;;
47609;SDS011;33330;50.402;30.240;2023-09-30T03:30:00;0.43;;;0.40;;
47609;SDS011;33330;50.402;30.240;2023-09-30T03:32:49;0.25;;;0.25;;
47609;SDS011;33330;50.402;30.240;2023-09-30T03:35:38;0.20;;;0.20;;
47609;SDS011;33330;50.402;30.240;2023-09-30T03:38:27;0.20;;;0.20;;
47609;SDS011;33330;50.402;30.240;2023-09-30T03:41:16;0.28;;;0.28;;
47609;SDS011;33330;50.402;30.240;2023-09-30T03:44:06;0.45;;;0.45;;
47609;SDS011;33330;50.402;30.240;2023-09-30T03:46:54;0.32;;;0.32;;
47609;SDS011;33330;50.402;30.240;2023-09-30T03:49:44;0.10;;;0.10;;
47609;SDS011;33330;50.402;30.240;2023-09-30T03:52:33;0.10;;;0.10;;
47609;SDS011;33330;50.402;30.240;2023-09-30T03:55:22;1.85;;;0.50;;
47609;SDS011;33330;50.402;30.240;2023-09-30T03:58:10;0.20;;;0.20;;
47609;SDS011;33330;50.402;30.240;2023-09-30T04:00:59;0.10;;;0.10;;
47609;SDS011;33330;50.402;30.240;2023-09-30T04:03:48;0.10;;;0.10;;
47609;SDS011;33330;50.402;30.240;2023-09-30T04:06:37;0.38;;;0.38;;
47609;SDS011;33330;50.402;30.240;2023-09-30T04:09:25;0.38;;;0.32;;
47609;SDS011;33330;50.402;30.240;2023-09-30T04:12:15;0.22;;;0.22;;
47609;SDS011;33330;50.402;30.240;2023-09-30T04:15:03;0.30;;;0.30;;
47609;SDS011;33330;50.402;30.240;2023-09-30T04:17:51;0.20;;;0.20;;
47609;SDS011;33330;50.402;30.240;2023-09-30T04:20:39;0.17;;;0.17;;
47609;SDS011;33330;50.402;30.240;2023-09-30T04:23:28;0.20;;;0.20;;
47609;SDS011;33330;50.402;30.240;2023-09-30T04:26:16;0.20;;;0.20;;
47609;SDS011;33330;50.402;30.240;2023-09-30T04:29:05;0.30;;;0.30;;
47609;SDS011;33330;50.402;30.240;2023-09-30T04:31:56;0.70;;;0.70;;
47609;SDS011;33330;50.402;30.240;2023-09-30T04:34:45;0.95;;;0.38;;
47609;SDS011;33330;50.402;30.240;2023-09-30T04:37:33;0.35;;;0.35;;
47609;SDS011;33330;50.402;30.240;2023-09-30T04:40:23;0.47;;;0.47;;
47609;SDS011;33330;50.402;30.240;2023-09-30T04:43:13;0.20;;;0.20;;
47609;SDS011;33330;50.402;30.240;2023-09-30T04:46:03;0.98;;;0.45;;
47609;SDS011;33330;50.402;30.240;2023-09-30T04:48:53;1.15;;;0.90;;
47609;SDS011;33330;50.402;30.240;2023-09-30T04:51:41;0.20;;;0.20;;
47609;SDS011;33330;50.402;30.240;2023-09-30T04:54:31;0.40;;;0.40;;
47609;SDS011;33330;50.402;30.240;2023-09-30T04:57:20;0.47;;;0.47;;
47609;SDS011;33330;50.402;30.240;2023-09-30T05:00:10;0.60;;;0.60;;
47609;SDS011;33330;50.402;30.240;2023-09-30T05:03:01;0.57;;;0.57;;
47609;SDS011;33330;50.402;30.240;2023-09-30T05:05:52;1.85;;;0.60;;
47609;SDS011;33330;50.402;30.240;2023-09-30T05:08:42;0.70;;;0.70;;
47609;SDS011;33330;50.402;30.240;2023-09-30T05:11:30;1.00;;;0.47;;
47609;SDS011;33330;50.402;30.240;2023-09-30T05:14:19;0.30;;;0.30;;
47609;SDS011;33330;50.402;30.240;2023-09-30T05:17:07;0.32;;;0.32;;
47609;SDS011;33330;50.402;30.240;2023-09-30T05:19:57;0.63;;;0.43;;
47609;SDS011;33330;50.402;30.240;2023-09-30T05:22:45;0.15;;;0.15;;
47609;SDS011;33330;50.402;30.240;2023-09-30T05:25:35;1.17;;;0.93;;
47609;SDS011;33330;50.402;30.240;2023-09-30T05:28:23;0.52;;;0.52;;
47609;SDS011;33330;50.402;30.240;2023-09-30T05:31:11;0.80;;;0.80;;
47609;SDS011;33330;50.402;30.240;2023-09-30T05:34:00;0.20;;;0.20;;
47609;SDS011;33330;50.402;30.240;2023-09-30T05:36:51;0.55;;;0.55;;
47609;SDS011;33330;50.402;30.240;2023-09-30T05:39:39;0.60;;;0.32;;
47609;SDS011;33330;50.402;30.240;2023-09-30T05:42:27;0.40;;;0.40;;
47609;SDS011;33330;50.402;30.240;2023-09-30T05:45:17;1.17;;;1.10;;
47609;SDS011;33330;50.402;30.240;2023-09-30T05:48:05;2.60;;;0.75;;
47609;SDS011;33330;50.402;30.240;2023-09-30T05:50:53;0.45;;;0.45;;
47609;SDS011;33330;50.402;30.240;2023-09-30T05:53:43;0.40;;;0.30;;
47609;SDS011;33330;50.402;30.240;2023-09-30T05:56:32;0.55;;;0.55;;
47609;SDS011;33330;50.402;30.240;2023-09-30T05:59:20;3.55;;;1.08;;
47609;SDS011;33330;50.402;30.240;2023-09-30T06:02:08;1.10;;;1.10;;
47609;SDS011;33330;50.402;30.240;2023-09-30T06:04:57;0.50;;;0.50;;
47609;SDS011;33330;50.402;30.240;2023-09-30T06:10:34;0.57;;;0.57;;
47609;SDS011;33330;50.402;30.240;2023-09-30T06:13:24;1.77;;;1.42;;
47609;SDS011;33330;50.402;30.240;2023-09-30T06:16:13;0.93;;;0.93;;
47609;SDS011;33330;50.402;30.240;2023-09-30T06:19:02;4.13;;;0.45;;
47609;SDS011;33330;50.402;30.240;2023-09-30T06:21:50;0.65;;;0.63;;
47609;SDS011;33330;50.402;30.240;2023-09-30T06:24:39;0.50;;;0.50;;
47609;SDS011;33330;50.402;30.240;2023-09-30T06:27:28;0.88;;;0.88;;
47609;SDS011;33330;50.402;30.240;2023-09-30T06:30:17;2.58;;;2.33;;
47609;SDS011;33330;50.402;30.240;2023-09-30T06:33:06;9.73;;;7.75;;
47609;SDS011;33330;50.402;30.240;2023-09-30T06:35:56;5.07;;;4.60;;
47609;SDS011;33330;50.402;30.240;2023-09-30T06:38:48;7.03;;;4.25;;
47609;SDS011;33330;50.402;30.240;2023-09-30T06:41:37;5.55;;;5.05;;
47609;SDS011;33330;50.402;30.240;2023-09-30T06:44:30;3.72;;;3.33;;
47609;SDS011;33330;50.402;30.240;2023-09-30T06:47:18;3.85;;;3.10;;
47609;SDS011;33330;50.402;30.240;2023-09-30T06:50:08;2.67;;;2.28;;
47609;SDS011;33330;50.402;30.240;2023-09-30T06:55:47;1.38;;;1.27;;
47609;SDS011;33330;50.402;30.240;2023-09-30T06:58:35;0.55;;;0.55;;
47609;SDS011;33330;50.402;30.240;2023-09-30T07:01:24;0.43;;;0.43;;
47609;SDS011;33330;50.402;30.240;2023-09-30T07:04:12;0.68;;;0.68;;
47609;SDS011;33330;50.402;30.240;2023-09-30T07:07:01;0.32;;;0.32;;
47609;SDS011;33330;50.402;30.240;2023-09-30T07:09:49;0.90;;;0.75;;
47609;SDS011;33330;50.402;30.240;2023-09-30T07:12:37;0.52;;;0.52;;
47609;SDS011;33330;50.402;30.240;2023-09-30T07:15:26;0.63;;;0.63;;
47609;SDS011;33330;50.402;30.240;2023-09-30T07:18:16;1.02;;;0.82;;
47609;SDS011;33330;50.402;30.240;2023-09-30T07:21:05;0.45;;;0.45;;
47609;SDS011;33330;50.402;30.240;2023-09-30T07:23:54;0.20;;;0.00;;
47609;SDS011;33330;50.402;30.240;2023-09-30T07:26:43;0.10;;;0.10;;
47609;SDS011;33330;50.402;30.240;2023-09-30T07:29:32;0.28;;;0.28;;
47609;SDS011;33330;50.402;30.240;2023-09-30T07:32:20;0.82;;;0.60;;
47609;SDS011;33330;50.402;30.240;2023-09-30T07:35:12;0.10;;;0.10;;
47609;SDS011;33330;50.402;30.240;2023-09-30T07:38:03;0.00;;;0.00;;
47609;SDS011;33330;50.402;30.240;2023-09-30T07:40:51;0.10;;;0.10;;
47609;SDS011;33330;50.402;30.240;2023-09-30T07:43:40;0.80;;;0.80;;
47609;SDS011;33330;50.402;30.240;2023-09-30T07:46:29;0.88;;;0.55;;
47609;SDS011;33330;50.402;30.240;2023-09-30T07:49:18;0.20;;;0.20;;
47609;SDS011;33330;50.402;30.240;2023-09-30T07:52:07;0.20;;;0.20;;
47609;SDS011;33330;50.402;30.240;2023-09-30T07:54:56;0.20;;;0.20;;
47609;SDS011;33330;50.402;30.240;2023-09-30T07:57:45;0.10;;;0.08;;
47609;SDS011;33330;50.402;30.240;2023-09-30T08:00:33;0.20;;;0.20;;
47609;SDS011;33330;50.402;30.240;2023-09-30T08:03:22;0.10;;;0.10;;
47609;SDS011;33330;50.402;30.240;2023-09-30T08:06:11;0.20;;;0.17;;
47609;SDS011;33330;50.402;30.240;2023-09-30T08:09:01;0.15;;;0.15;;
47609;SDS011;33330;50.402;30.240;2023-09-30T08:11:52;0.00;;;0.00;;
47609;SDS011;33330;50.402;30.240;2023-09-30T08:14:41;0.10;;;0.10;;
47609;SDS011;33330;50.402;30.240;2023-09-30T08:17:31;0.03;;;0.03;;
47609;SDS011;33330;50.402;30.240;2023-09-30T08:20:20;0.17;;;0.17;;
47609;SDS011;33330;50.402;30.240;2023-09-30T08:23:09;0.43;;;0.22;;
47609;SDS011;33330;50.402;30.240;2023-09-30T08:25:59;0.10;;;0.10;;
47609;SDS011;33330;50.402;30.240;2023-09-30T08:28:47;0.00;;;0.00;;
47609;SDS011;33330;50.402;30.240;2023-09-30T08:31:35;0.47;;;0.47;;
47609;SDS011;33330;50.402;30.240;2023-09-30T08:34:23;0.15;;;0.15;;
47609;SDS011;33330;50.402;30.240;2023-09-30T08:37:13;0.38;;;0.38;;
47609;SDS011;33330;50.402;30.240;2023-09-30T08:40:02;0.90;;;0.70;;
47609;SDS011;33330;50.402;30.240;2023-09-30T08:42:53;0.47;;;0.30;;
47609;SDS011;33330;50.402;30.240;2023-09-30T08:45:42;0.20;;;0.20;;
47609;SDS011;33330;50.402;30.240;2023-09-30T08:48:32;0.15;;;0.15;;
47609;SDS011;33330;50.402;30.240;2023-09-30T08:51:21;0.13;;;0.10;;
47609;SDS011;33330;50.402;30.240;2023-09-30T08:54:09;0.30;;;0.28;;
47609;SDS011;33330;50.402;30.240;2023-09-30T08:56:58;0.80;;;0.80;;
47609;SDS011;33330;50.402;30.240;2023-09-30T08:59:51;0.67;;;0.33;;
47609;SDS011;33330;50.402;30.240;2023-09-30T09:02:41;0.40;;;0.40;;
47609;SDS011;33330;50.402;30.240;2023-09-30T09:05:30;0.22;;;0.22;;
47609;SDS011;33330;50.402;30.240;2023-09-30T09:08:17;0.77;;;0.77;;
47609;SDS011;33330;50.402;30.240;2023-09-30T09:13:58;0.45;;;0.30;;
47609;SDS011;33330;50.402;30.240;2023-09-30T09:16:52;0.20;;;0.20;;
47609;SDS011;33330;50.402;30.240;2023-09-30T09:19:41;0.75;;;0.63;;
47609;SDS011;33330;50.402;30.240;2023-09-30T09:22:37;0.10;;;0.10;;
47609;SDS011;33330;50.402;30.240;2023-09-30T09:25:26;0.30;;;0.28;;
47609;SDS011;33330;50.402;30.240;2023-09-30T09:28:15;0.57;;;0.43;;
47609;SDS011;33330;50.402;30.240;2023-09-30T09:31:03;0.15;;;0.15;;
47609;SDS011;33330;50.402;30.240;2023-09-30T09:34:14;0.22;;;0.22;;
47609;SDS011;33330;50.402;30.240;2023-09-30T09:37:12;0.25;;;0.05;;
47609;SDS011;33330;50.402;30.240;2023-09-30T09:40:01;0.28;;;0.28;;
47609;SDS011;33330;50.402;30.240;2023-09-30T09:42:50;0.10;;;0.10;;
47609;SDS011;33330;50.402;30.240;2023-09-30T09:45:41;0.47;;;0.45;;
47609;SDS011;33330;50.402;30.240;2023-09-30T09:48:30;0.68;;;0.60;;
47609;SDS011;33330;50.402;30.240;2023-09-30T09:51:20;0.10;;;0.10;;
47609;SDS011;33330;50.402;30.240;2023-09-30T09:54:08;0.00;;;0.00;;
47609;SDS011;33330;50.402;30.240;2023-09-30T09:56:57;0.13;;;0.10;;
47609;SDS011;33330;50.402;30.240;2023-09-30T09:59:48;0.00;;;0.00;;
47609;SDS011;33330;50.402;30.240;2023-09-30T10:02:38;0.70;;;0.20;;
47609;SDS011;33330;50.402;30.240;2023-09-30T10:05:27;0.30;;;0.30;;
47609;SDS011;33330;50.402;30.240;2023-09-30T10:08:16;0.65;;;0.65;;
47609;SDS011;33330;50.402;30.240;2023-09-30T10:11:08;0.10;;;0.10;;
47609;SDS011;33330;50.402;30.240;2023-09-30T10:13:58;0.05;;;0.05;;
47609;SDS011;33330;50.402;30.240;2023-09-30T10:16:49;0.17;;;0.17;;
47609;SDS011;33330;50.402;30.240;2023-09-30T10:23:21;0.73;;;0.25;;
47609;SDS011;33330;50.402;30.240;2023-09-30T10:26:15;0.10;;;0.10;;
47609;SDS011;33330;50.402;30.240;2023-09-30T10:31:57;0.30;;;0.30;;
47609;SDS011;33330;50.402;30.240;2023-09-30T10:34:47;0.00;;;0.00;;
47609;SDS011;33330;50.402;30.240;2023-09-30T10:37:35;1.40;;;0.30;;
47609;SDS011;33330;50.402;30.240;2023-09-30T10:40:27;0.00;;;0.00;;
47609;SDS011;33330;50.402;30.240;2023-09-30T10:43:28;0.00;;;0.00;;
47609;SDS011;33330;50.402;30.240;2023-09-30T10:46:29;1.55;;;0.30;;
47609;SDS011;33330;50.402;30.240;2023-09-30T10:49:30;1.30;;;0.40;;
47609;SDS011;33330;50.402;30.240;2023-09-30T10:52:22;0.20;;;0.20;;
47609;SDS011;33330;50.402;30.240;2023-09-30T10:55:11;0.10;;;0.10;;
47609;SDS011;33330;50.402;30.240;2023-09-30T10:58:00;0.00;;;0.00;;
47609;SDS011;33330;50.402;30.240;2023-09-30T11:00:51;0.03;;;0.03;;
47609;SDS011;33330;50.402;30.240;2023-09-30T11:03:41;0.13;;;0.10;;
47609;SDS011;33330;50.402;30.240;2023-09-30T11:06:30;0.28;;;0.28;;
47609;SDS011;33330;50.402;30.240;2023-09-30T11:09:20;0.08;;;0.08;;
47609;SDS011;33330;50.402;30.240;2023-09-30T11:12:13;0.00;;;0.00;;
47609;SDS011;33330;50.402;30.240;2023-09-30T11:15:03;0.10;;;0.10;;
47609;SDS011;33330;50.402;30.240;2023-09-30T11:17:51;0.10;;;0.10;;
47609;SDS011;33330;50.402;30.240;2023-09-30T11:20:40;0.13;;;0.10;;
47609;SDS011;33330;50.402;30.240;2023-09-30T11:23:28;0.52;;;0.52;;
47609;SDS011;33330;50.402;30.240;2023-09-30T11:26:17;0.40;;;0.40;;
47609;SDS011;33330;50.402;30.240;2023-09-30T11:29:18;0.45;;;0.40;;
47609;SDS011;33330;50.402;30.240;2023-09-30T11:32:08;1.85;;;0.40;;
47609;SDS011;33330;50.402;30.240;2023-09-30T11:34:58;0.10;;;0.10;;
47609;SDS011;33330;50.402;30.240;2023-09-30T11:37:47;0.10;;;0.10;;
47609;SDS011;33330;50.402;30.240;2023-09-30T11:40:36;0.20;;;0.20;;
47609;SDS011;33330;50.402;30.240;2023-09-30T11:43:25;0.47;;;0.47;;
47609;SDS011;33330;50.402;30.240;2023-09-30T11:46:13;0.28;;;0.28;;
47609;SDS011;33330;50.402;30.240;2023-09-30T11:49:04;0.00;;;0.00;;
47609;SDS011;33330;50.402;30.240;2023-09-30T11:51:56;0.20;;;0.20;;
47609;SDS011;33330;50.402;30.240;2023-09-30T11:54:46;0.00;;;0.00;;
47609;SDS011;33330;50.402;30.240;2023-09-30T11:57:34;0.22;;;0.22;;
47609;SDS011;33330;50.402;30.240;2023-09-30T12:00:22;0.03;;;0.03;;
47609;SDS011;33330;50.402;30.240;2023-09-30T12:03:11;0.00;;;0.00;;
47609;SDS011;33330;50.402;30.240;2023-09-30T12:06:01;0.00;;;0.00;;
47609;SDS011;33330;50.402;30.240;2023-09-30T12:08:50;0.20;;;0.20;;
47609;SDS011;33330;50.402;30.240;2023-09-30T12:11:39;0.28;;;0.28;;
47609;SDS011;33330;50.402;30.240;2023-09-30T12:14:31;0.38;;;0.15;;
47609;SDS011;33330;50.402;30.240;2023-09-30T12:17:20;0.00;;;0.00;;
47609;SDS011;33330;50.402;30.240;2023-09-30T12:20:09;0.63;;;0.63;;
47609;SDS011;33330;50.402;30.240;2023-09-30T12:23:01;0.43;;;0.20;;
47609;SDS011;33330;50.402;30.240;2023-09-30T12:25:52;0.00;;;0.00;;
47609;SDS011;33330;50.402;30.240;2023-09-30T12:28:57;0.03;;;0.03;;
47609;SDS011;33330;50.402;30.240;2023-09-30T12:31:49;0.20;;;0.20;;
47609;SDS011;33330;50.402;30.240;2023-09-30T12:34:41;0.20;;;0.03;;
47609;SDS011;33330;50.402;30.240;2023-09-30T12:37:31;0.47;;;0.28;;
47609;SDS011;33330;50.402;30.240;2023-09-30T12:40:21;0.10;;;0.10;;
47609;SDS011;33330;50.402;30.240;2023-09-30T12:43:11;0.00;;;0.00;;
47609;SDS011;33330;50.402;30.240;2023-09-30T12:45:59;0.10;;;0.10;;
47609;SDS011;33330;50.402;30.240;2023-09-30T12:48:48;0.08;;;0.08;;
47609;SDS011;33330;50.402;30.240;2023-09-30T12:51:37;0.63;;;0.63;;
47609;SDS011;33330;50.402;30.240;2023-09-30T12:54:25;0.10;;;0.10;;
47609;SDS011;33330;50.402;30.240;2023-09-30T12:57:15;0.45;;;0.45;;
47609;SDS011;33330;50.402;30.240;2023-09-30T13:00:04;0.00;;;0.00;;
47609;SDS011;33330;50.402;30.240;2023-09-30T13:02:56;0.32;;;0.20;;
47609;SDS011;33330;50.402;30.240;2023-09-30T13:05:45;0.10;;;0.10;;
47609;SDS011;33330;50.402;30.240;2023-09-30T13:08:34;0.47;;;0.47;;
47609;SDS011;33330;50.402;30.240;2023-09-30T13:11:24;0.00;;;0.00;;
47609;SDS011;33330;50.402;30.240;2023-09-30T13:14:16;0.10;;;0.10;;
47609;SDS011;33330;50.402;30.240;2023-09-30T13:17:06;0.15;;;0.15;;
47609;SDS011;33330;50.402;30.240;2023-09-30T13:19:57;0.35;;;0.35;;
47609;SDS011;33330;50.402;30.240;2023-09-30T13:22:47;0.00;;;0.00;;
47609;SDS011;33330;50.402;30.240;2023-09-30T13:25:37;0.10;;;0.10;;
47609;SDS011;33330;50.402;30.240;2023-09-30T13:28:26;0.00;;;0.00;;
47609;SDS011;33330;50.402;30.240;2023-09-30T13:31:17;0.35;;;0.28;;
47609;SDS011;33330;50.402;30.240;2023-09-30T13:34:06;0.20;;;0.10;;
47609;SDS011;33330;50.402;30.240;2023-09-30T13:36:56;0.00;;;0.00;;
47609;SDS011;33330;50.402;30.240;2023-09-30T13:39:46;0.08;;;0.08;;
47609;SDS011;33330;50.402;30.240;2023-09-30T13:42:37;0.30;;;0.15;;
47609;SDS011;33330;50.402;30.240;2023-09-30T13:45:27;0.00;;;0.00;;
47609;SDS011;33330;50.402;30.240;2023-09-30T13:48:18;0.93;;;0.77;;
47609;SDS011;33330;50.402;30.240;2023-09-30T13:51:08;0.45;;;0.45;;
47609;SDS011;33330;50.402;30.240;2023-09-30T13:53:57;0.05;;;0.05;;
47609;SDS011;33330;50.402;30.240;2023-09-30T13:56:46;0.10;;;0.10;;
47609;SDS011;33330;50.402;30.240;2023-09-30T13:59:35;0.00;;;0.00;;
47609;SDS011;33330;50.402;30.240;2023-09-30T14:02:25;0.00;;;0.00;;
47609;SDS011;33330;50.402;30.240;2023-09-30T14:05:16;0.28;;;0.28;;
47609;SDS011;33330;50.402;30.240;2023-09-30T14:10:56;0.17;;;0.13;;
47609;SDS011;33330;50.402;30.240;2023-09-30T14:13:44;0.20;;;0.20;;
47609;SDS011;33330;50.402;30.240;2023-09-30T14:16:32;0.10;;;0.10;;
47609;SDS011;33330;50.402;30.240;2023-09-30T14:19:21;0.10;;;0.10;;
47609;SDS011;33330;50.402;30.240;2023-09-30T14:22:11;0.00;;;0.00;;
47609;SDS011;33330;50.402;30.240;2023-09-30T14:25:00;0.00;;;0.00;;
47609;SDS011;33330;50.402;30.240;2023-09-30T14:27:49;0.00;;;0.00;;
47609;SDS011;33330;50.402;30.240;2023-09-30T14:30:38;0.00;;;0.00;;
47609;SDS011;33330;50.402;30.240;2023-09-30T14:33:27;0.55;;;0.52;;
47609;SDS011;33330;50.402;30.240;2023-09-30T14:36:15;0.00;;;0.00;;
47609;SDS011;33330;50.402;30.240;2023-09-30T14:39:05;0.08;;;0.08;;
47609;SDS011;33330;50.402;30.240;2023-09-30T14:42:01;0.15;;;0.15;;
47609;SDS011;33330;50.402;30.240;2023-09-30T14:44:49;0.00;;;0.00;;
47609;SDS011;33330;50.402;30.240;2023-09-30T14:47:37;0.60;;;0.60;;
47609;SDS011;33330;50.402;30.240;2023-09-30T14:50:26;0.15;;;0.15;;
47609;SDS011;33330;50.402;30.240;2023-09-30T14:53:14;0.63;;;0.30;;
47609;SDS011;33330;50.402;30.240;2023-09-30T14:56:03;0.00;;;0.00;;
47609;SDS011;33330;50.402;30.240;2023-09-30T14:59:02;0.17;;;0.17;;
47609;SDS011;33330;50.402;30.240;2023-09-30T15:01:52;0.00;;;0.00;;
47609;SDS011;33330;50.402;30.240;2023-09-30T15:04:40;0.00;;;0.00;;
47609;SDS011;33330;50.402;30.240;2023-09-30T15:07:29;0.00;;;0.00;;
47609;SDS011;33330;50.402;30.240;2023-09-30T15:10:17;0.00;;;0.00;;
47609;SDS011;33330;50.402;30.240;2023-09-30T15:13:08;0.10;;;0.10;;
47609;SDS011;33330;50.402;30.240;2023-09-30T15:15:56;0.10;;;0.10;;
47609;SDS011;33330;50.402;30.240;2023-09-30T15:18:45;0.00;;;0.00;;
47609;SDS011;33330;50.402;30.240;2023-09-30T15:21:34;0.55;;;0.55;;
47609;SDS011;33330;50.402;30.240;2023-09-30T15:24:23;0.65;;;0.65;;
47609;SDS011;33330;50.402;30.240;2023-09-30T15:27:11;0.25;;;0.25;;
47609;SDS011;33330;50.402;30.240;2023-09-30T15:30:01;0.40;;;0.40;;
47609;SDS011;33330;50.402;30.240;2023-09-30T15:32:50;0.30;;;0.30;;
47609;SDS011;33330;50.402;30.240;2023-09-30T15:35:40;0.47;;;0.30;;
47609;SDS011;33330;50.402;30.240;2023-09-30T15:38:28;0.40;;;0.40;;
47609;SDS011;33330;50.402;30.240;2023-09-30T15:41:19;0.25;;;0.25;;
47609;SDS011;33330;50.402;30.240;2023-09-30T15:44:08;0.00;;;0.00;;
47609;SDS011;33330;50.402;30.240;2023-09-30T15:46:59;0.30;;;0.30;;
47609;SDS011;33330;50.402;30.240;2023-09-30T15:49:48;0.20;;;0.20;;
47609;SDS011;33330;50.402;30.240;2023-09-30T15:52:37;0.63;;;0.63;;
47609;SDS011;33330;50.402;30.240;2023-09-30T15:55:27;0.10;;;0.10;;
47609;SDS011;33330;50.402;30.240;2023-09-30T15:58:16;0.22;;;0.22;;
47609;SDS011;33330;50.402;30.240;2023-09-30T16:01:04;0.10;;;0.10;;
47609;SDS011;33330;50.402;30.240;2023-09-30T16:03:55;0.20;;;0.20;;
47609;SDS011;33330;50.402;30.240;2023-09-30T16:06:45;0.52;;;0.52;;
47609;SDS011;33330;50.402;30.240;2023-09-30T16:09:33;0.10;;;0.10;;
47609;SDS011;33330;50.402;30.240;2023-09-30T16:12:21;0.10;;;0.10;;
47609;SDS011;33330;50.402;30.240;2023-09-30T16:15:09;0.20;;;0.20;;
47609;SDS011;33330;50.402;30.240;2023-09-30T16:18:00;0.52;;;0.52;;
47609;SDS011;33330;50.402;30.240;2023-09-30T16:20:50;0.10;;;0.10;;
47609;SDS011;33330;50.402;30.240;2023-09-30T16:23:38;0.20;;;0.20;;
47609;SDS011;33330;50.402;30.240;2023-09-30T16:26:26;1.33;;;0.93;;
47609;SDS011;33330;50.402;30.240;2023-09-30T16:29:15;0.40;;;0.40;;
47609;SDS011;33330;50.402;30.240;2023-09-30T16:32:03;0.65;;;0.65;;
47609;SDS011;33330;50.402;30.240;2023-09-30T16:34:51;0.65;;;0.65;;
47609;SDS011;33330;50.402;30.240;2023-09-30T16:37:41;0.98;;;0.98;;
47609;SDS011;33330;50.402;30.240;2023-09-30T16:40:29;0.82;;;0.82;;
47609;SDS011;33330;50.402;30.240;2023-09-30T16:43:19;0.45;;;0.45;;
47609;SDS011;33330;50.402;30.240;2023-09-30T16:46:07;1.85;;;1.30;;
47609;SDS011;33330;50.402;30.240;2023-09-30T16:48:56;0.28;;;0.28;;
47609;SDS011;33330;50.402;30.240;2023-09-30T16:51:44;0.40;;;0.40;;
47609;SDS011;33330;50.402;30.240;2023-09-30T16:54:34;1.52;;;1.42;;
47609;SDS011;33330;50.402;30.240;2023-09-30T16:57:22;0.75;;;0.75;;
47609;SDS011;33330;50.402;30.240;2023-09-30T17:00:12;0.43;;;0.43;;
47609;SDS011;33330;50.402;30.240;2023-09-30T17:03:02;1.75;;;1.65;;